メインページ
METAR-TAF:

METAR-TAF

空港 :

エルサルバドル国際空港

エルサルバドル, エルサルバドル

緯度: 13-26N, 経度: 089-03W, 海抜: 25m

現時点の気象観測

当レポートは55分前の10:50(UTC)に作成
北/北東の風 2kt
気温 23°C
湿度 100%
気圧 1008 hPa
視程10km以上
1,500メートル以下は雲なし、積乱雲なし

METAR: MSLP 221050Z 02002KT CAVOK 23/23 Q1008 A2977 NOSIG

時間: 05:45 (11:45 UTC)

予報

当レポートは2時間20分前の09:25(UTC)に作成
予報は22日の 12時(UTC)から 23日の 12時(UTC)まで有効
東/北東の風 4kt
視程10km以上
高度2700ftの雲はほとんどない
22日の 1800時(UTC)から
南西の風 8kt
高度3000ftの雲は散在している
高度4000ftの雲はほとんどない, 積乱雲.
23日の 0000時(UTC)から
変向風 2kt
23日の 03時(UTC)から 23日の 06時(UTC)まで一時的に
東/北東の風 6kt
視程: 8000m
高度2700ftの雲は散在している
高度3700ftの雲はほとんどない, 積乱雲.
高度6000ftの千切れ雲あり
激しい雷雨, 小雨

TAF: MSLP 220925Z 2212/2312 07004KT 9999 FEW027 TX32/2218Z TTN24/2310Z FM221800 23008KT SCT030 FEW040CB FM230000 VRB02KT TEMPO 2303/2306 07006KT 8000 -TSRA SCT027 FEW037CB BKN060

4,000以上の空港の気象観測と天気予報(METAR報とTAF報)

利用可能な観測所は地図上に黄色い丸と赤い丸で示す。

丸の上にカーソルを重ねると観測所名を参照できる。

次にクリックすると気象観測と天気予報を参照できる。

マップの切り替え:黒色「×」印の緑ボタンをクリックして拡大、「-」印の緑ボタンをクリックして縮小、緑色の三角印をクリックして隣りの地図に切り替え


METAR-TAF: